Time;durP1;ratioP1;P1;durP2;ratioP2;P2;SDS_P1;SDS_P2;PMS_P1;PMS_P2;Temp;Humidity;BMP_temperature;BMP_pressure;BME280_temperature;BME280_humidity;BME280_pressure;Samples;Min_cycle;Max_cycle;Signal;HPM_P1;HPM_P2
2020/12/12 00:00:06;;;;;;;35.87;16.20;;;;;;;-0.23;83.69;97410.95;3595020;82;21071;-79
2020/12/12 00:05:08;;;;;;;33.27;14.77;;;;;;;-0.21;83.79;97407.56;3593036;82;21517;-79
2020/12/12 00:10:11;;;;;;;34.47;15.73;;;;;;;-0.20;84.05;97406.53;3579843;82;20995;-79
2020/12/12 00:15:13;;;;;;;30.17;14.87;;;;;;;-0.14;84.04;97402.09;3607988;80;21436;-79
2020/12/12 00:20:15;;;;;;;32.53;15.70;;;;;;;-0.09;83.94;97409.23;3681376;80;21059;-79
2020/12/12 00:25:17;;;;;;;30.87;13.90;;;;;;;-0.08;83.73;97408.19;3697387;79;21024;-79
2020/12/12 00:30:19;;;;;;;33.43;15.43;;;;;;;-0.14;83.76;97402.09;3683709;80;21024;-79
2020/12/12 00:35:22;;;;;;;39.07;17.87;;;;;;;-0.16;83.81;97406.02;3675219;80;20991;-79
2020/12/12 00:40:23;;;;;;;36.57;16.67;;;;;;;-0.12;84.04;97401.84;3664105;80;21598;-79
2020/12/12 00:45:26;;;;;;;31.07;14.90;;;;;;;-0.08;84.17;97401.61;3689249;80;21471;-79
2020/12/12 00:50:28;;;;;;;31.47;16.27;;;;;;;-0.08;83.97;97403.70;3680515;80;21392;-79
2020/12/12 00:55:30;;;;;;;26.53;13.83;;;;;;;-0.05;83.85;97404.52;3647064;81;21023;-79
2020/12/12 01:00:33;;;;;;;28.47;13.43;;;;;;;-0.09;83.94;97399.48;3594166;82;21008;-79
2020/12/12 01:05:35;;;;;;;25.47;12.23;;;;;;;-0.05;84.25;97397.15;3712971;80;20981;-79
2020/12/12 01:10:37;;;;;;;33.60;16.60;;;;;;;-0.05;84.06;97395.83;3607152;82;21499;-79
2020/12/12 01:15:39;;;;;;;31.90;14.43;;;;;;;-0.02;84.20;97390.84;3712445;80;21472;-79
2020/12/12 01:20:41;;;;;;;33.90;16.40;;;;;;;0.05;84.12;97388.53;3711778;80;21020;-79
2020/12/12 01:25:43;;;;;;;29.83;13.53;;;;;;;0.02;83.92;97392.98;3709171;80;20968;-80
2020/12/12 01:30:45;;;;;;;32.20;14.67;;;;;;;0.02;83.88;97386.41;3651446;80;21016;-80
2020/12/12 01:35:48;;;;;;;44.77;18.77;;;;;;;0.07;84.17;97391.18;3711717;80;21032;-79
2020/12/12 01:40:55;;;;;;;36.70;15.43;;;;;;;0.12;84.07;97385.92;3712215;80;20992;-79
2020/12/12 01:45:57;;;;;;;28.80;14.27;;;;;;;0.18;84.14;97376.20;3712153;80;21408;-79
2020/12/12 01:50:59;;;;;;;36.13;16.87;;;;;;;0.23;83.83;97371.52;3699726;80;21523;-77
2020/12/12 01:56:01;;;;;;;32.27;15.37;;;;;;;0.20;83.77;97369.37;3667164;80;20988;-77
2020/12/12 02:01:05;;;;;;;30.83;15.17;;;;;;;0.19;83.88;97371.75;3656627;80;21507;-78
2020/12/12 02:06:14;;;;;;;29.73;14.40;;;;;;;0.20;83.88;97375.95;3697714;80;21044;-77
2020/12/12 02:11:17;;;;;;;25.87;12.23;;;;;;;0.23;83.85;97376.78;3695470;80;20999;-77
2020/12/12 02:16:19;;;;;;;29.03;12.37;;;;;;;0.19;83.80;97365.17;3707915;80;20981;-78
2020/12/12 02:21:25;;;;;;;28.57;13.93;;;;;;;0.15;83.75;97359.61;3694825;80;21008;-78
2020/12/12 02:26:26;;;;;;;31.13;15.03;;;;;;;0.13;83.75;97354.59;3650997;80;21512;-78
2020/12/12 02:31:28;;;;;;;26.30;12.80;;;;;;;0.13;83.81;97358.55;3656035;80;21020;-78
2020/12/12 02:36:37;;;;;;;27.70;13.53;;;;;;;0.10;83.77;97345.90;3683764;80;20988;-78
2020/12/12 02:41:39;;;;;;;32.60;14.33;;;;;;;0.08;83.79;97341.39;3653113;80;21035;-78
2020/12/12 02:46:41;;;;;;;29.83;13.13;;;;;;;0.06;84.00;97336.92;3658913;80;21008;-78
2020/12/12 02:51:43;;;;;;;28.17;12.83;;;;;;;0.03;84.10;97332.17;3689642;80;21060;-78
2020/12/12 02:56:45;;;;;;;28.27;13.40;;;;;;;-0.01;84.06;97325.30;3675394;80;21059;-78
2020/12/12 03:01:47;;;;;;;27.83;14.03;;;;;;;-0.02;84.21;97325.02;3646441;81;21417;-78
2020/12/12 03:06:49;;;;;;;25.00;12.50;;;;;;;0.00;84.44;97324.79;3646546;81;21036;-79
2020/12/12 03:11:51;;;;;;;26.27;12.90;;;;;;;-0.01;84.40;97316.61;3647859;80;20979;-78
2020/12/12 03:16:53;;;;;;;34.63;14.83;;;;;;;-0.02;84.34;97307.12;3674126;80;21013;-79
2020/12/12 03:21:56;;;;;;;26.47;12.93;;;;;;;-0.02;84.58;97305.80;3701826;80;21043;-79
2020/12/12 03:26:58;;;;;;;32.77;15.00;;;;;;;0.02;84.64;97298.20;3693132;80;21029;-79
2020/12/12 03:32:00;;;;;;;28.03;13.17;;;;;;;-0.03;84.50;97303.70;3652586;80;21012;-81
2020/12/12 03:37:03;;;;;;;31.83;15.67;;;;;;;-0.09;84.56;97307.88;3678440;80;20925;-78
2020/12/12 03:42:06;;;;;;;24.10;11.00;;;;;;;-0.07;84.80;97300.50;3689573;79;21003;-78
2020/12/12 03:47:09;;;;;;;22.80;11.40;;;;;;;-0.02;84.85;97297.91;3672315;79;21027;-77
2020/12/12 03:52:11;;;;;;;21.70;11.60;;;;;;;0.00;84.73;97297.14;3646009;81;20972;-77
2020/12/12 03:57:14;;;;;;;23.17;12.47;;;;;;;0.02;84.65;97296.35;3600201;81;21519;-77
2020/12/12 04:02:16;;;;;;;28.10;12.67;;;;;;;0.00;84.69;97291.88;3689162;79;21048;-78
2020/12/12 04:07:18;;;;;;;22.73;12.13;;;;;;;0.03;84.64;97290.55;3700894;80;21503;-77
2020/12/12 04:12:20;;;;;;;27.80;14.77;;;;;;;0.06;84.54;97296.11;3674510;80;21027;-77
2020/12/12 04:17:22;;;;;;;26.83;14.97;;;;;;;0.10;84.49;97298.50;3646099;81;21416;-78
2020/12/12 04:22:25;;;;;;;19.70;10.83;;;;;;;0.09;84.43;97296.91;3668100;80;21067;-79
2020/12/12 04:27:30;;;;;;;25.17;12.97;;;;;;;0.12;84.44;97299.55;3645872;81;21063;-78
2020/12/12 04:32:31;;;;;;;21.67;12.27;;;;;;;0.12;84.26;97305.60;3695107;80;20992;-77
2020/12/12 04:37:34;;;;;;;24.17;12.77;;;;;;;0.15;84.39;97292.45;3704164;80;21003;-78
2020/12/12 04:42:37;;;;;;;28.13;13.27;;;;;;;0.20;84.43;97298.26;3704472;80;21043;-77
2020/12/12 04:47:43;;;;;;;29.97;15.40;;;;;;;0.23;84.30;97300.41;3704208;80;20985;-78
2020/12/12 04:52:45;;;;;;;21.60;11.67;;;;;;;0.25;84.20;97302.24;3704191;80;21444;-79
2020/12/12 04:57:51;;;;;;;27.00;12.70;;;;;;;0.28;84.26;97296.45;3704372;79;21016;-78
2020/12/12 05:02:53;;;;;;;25.23;13.43;;;;;;;0.30;84.04;97279.88;3703945;80;21471;-77
2020/12/12 05:07:56;;;;;;;21.17;11.03;;;;;;;0.28;84.02;97299.90;3703394;80;21016;-77
2020/12/12 05:12:59;;;;;;;28.60;13.77;;;;;;;0.30;84.07;97312.27;3703557;80;21008;-77
2020/12/12 05:18:01;;;;;;;33.07;15.97;;;;;;;0.29;83.95;97304.63;3703404;80;21475;-77
2020/12/12 05:23:15;;;;;;;23.20;12.10;;;;;;;0.36;83.98;97303.08;3606909;80;20996;-78
2020/12/12 05:28:20;;;;;;;30.17;13.60;;;;;;;0.41;84.05;97299.16;3661659;80;21463;-77
2020/12/12 05:33:26;;;;;;;28.63;15.00;;;;;;;0.42;83.93;97294.94;3692721;80;20972;-77
2020/12/12 05:38:28;;;;;;;28.83;14.13;;;;;;;0.44;83.75;97313.91;3674205;80;21017;-77
2020/12/12 05:43:36;;;;;;;29.03;15.53;;;;;;;0.43;83.71;97304.41;3680839;79;21009;-77
2020/12/12 05:48:38;;;;;;;31.83;15.80;;;;;;;0.45;83.78;97302.33;3644466;81;21103;-77
2020/12/12 05:53:43;;;;;;;31.07;16.40;;;;;;;0.46;83.60;97324.19;3577164;83;21033;-79
2020/12/12 05:58:47;;;;;;;28.97;14.77;;;;;;;0.48;83.80;97321.56;3564027;83;21335;-78
2020/12/12 06:03:53;;;;;;;31.70;16.27;;;;;;;0.52;83.71;97316.59;3527179;83;20991;-78
2020/12/12 06:09:08;;;;;;;23.63;12.57;;;;;;;0.53;83.47;97315.52;3541739;83;21029;-77
2020/12/12 06:14:11;;;;;;;23.37;13.17;;;;;;;0.58;83.56;97316.86;3570664;82;21027;-78
2020/12/12 06:19:17;;;;;;;24.50;12.67;;;;;;;0.61;83.46;97328.19;3608241;80;21055;-77
2020/12/12 06:24:20;;;;;;;29.80;15.53;;;;;;;0.65;83.58;97312.66;3679693;80;20991;-77
2020/12/12 06:29:26;;;;;;;27.67;13.70;;;;;;;0.65;83.54;97320.03;3670088;80;21483;-78
2020/12/12 06:34:51;;;;;;;28.93;14.53;;;;;;;0.70;83.52;97313.20;3683980;80;21004;-79
2020/12/12 06:39:53;;;;;;;28.80;14.57;;;;;;;0.76;83.57;97309.54;3589225;82;21084;-78
2020/12/12 06:44:55;;;;;;;39.53;18.90;;;;;;;0.77;83.52;97325.59;3614363;81;21060;-79
2020/12/12 06:50:07;;;;;;;38.13;19.10;;;;;;;0.79;83.30;97324.29;3694639;80;20984;-79
2020/12/12 06:55:13;;;;;;;29.33;15.63;;;;;;;0.82;83.34;97305.84;3661660;80;21039;-79
2020/12/12 07:00:33;;;;;;;30.30;15.27;;;;;;;0.84;83.28;97320.36;3670324;80;21052;-79
2020/12/12 07:05:38;;;;;;;29.65;16.02;;;;;;;0.82;83.07;97332.98;3647039;80;21498;-77
2020/12/12 07:10:44;;;;;;;23.77;12.80;;;;;;;0.83;83.27;97332.48;3699452;80;21483;-78
2020/12/12 07:15:46;;;;;;;30.93;16.03;;;;;;;0.88;83.29;97342.24;3711570;80;21008;-78
2020/12/12 07:20:52;;;;;;;29.60;15.03;;;;;;;0.94;83.26;97339.90;3711586;80;20988;-76
2020/12/12 07:25:54;;;;;;;30.43;15.67;;;;;;;1.02;83.32;97347.27;3683508;80;20988;-77
2020/12/12 07:30:56;;;;;;;27.83;15.50;;;;;;;1.08;83.06;97352.03;3623296;81;21071;-79
2020/12/12 07:35:59;;;;;;;37.17;19.73;;;;;;;1.12;82.93;97363.64;3661887;80;21488;-79
2020/12/12 07:41:07;;;;;;;30.97;15.20;;;;;;;1.16;83.02;97365.52;3653309;80;20995;-77
2020/12/12 07:46:12;;;;;;;39.97;20.17;;;;;;;1.25;83.07;97365.00;3700936;80;21044;-77
2020/12/12 07:51:15;;;;;;;44.40;22.10;;;;;;;1.25;82.87;97365.00;3660988;80;21060;-77
2020/12/12 07:56:20;;;;;;;36.33;18.83;;;;;;;1.36;82.94;97368.70;3686000;80;21027;-77
2020/12/12 08:01:24;;;;;;;42.40;22.60;;;;;;;1.50;83.07;97366.88;3671004;80;21028;-76
2020/12/12 08:06:27;;;;;;;45.63;22.93;;;;;;;1.56;82.80;97375.59;3665666;79;21044;-76
2020/12/12 08:11:31;;;;;;;42.23;22.67;;;;;;;1.57;82.55;97387.70;3688858;80;20960;-77
2020/12/12 08:16:41;;;;;;;36.63;19.80;;;;;;;1.60;82.32;97387.98;3674343;80;21044;-77
2020/12/12 08:21:39;;;;;;;45.90;25.03;;;;;;;1.72;82.49;97389.03;3703841;80;21041;-76
2020/12/12 08:26:42;;;;;;;41.70;21.57;;;;;;;1.72;82.49;97389.03;3572306;82;21527;-76
2020/12/12 08:31:44;;;;;;;49.73;25.03;;;;;;;1.71;82.34;97392.20;3644423;81;21000;-77
2020/12/12 08:36:47;;;;;;;44.90;24.97;;;;;;;1.70;82.13;97401.72;3663103;80;21008;-78
2020/12/12 08:41:48;;;;;;;53.57;27.07;;;;;;;1.75;82.21;97404.36;3693324;80;21492;-77
2020/12/12 08:46:53;;;;;;;55.07;28.27;;;;;;;1.66;81.79;97406.71;3651476;80;21039;-77
2020/12/12 08:51:55;;;;;;;41.00;21.03;;;;;;;1.53;81.71;97409.35;3654748;80;21003;-77
2020/12/12 08:57:10;;;;;;;56.63;28.30;;;;;;;1.52;81.82;97419.64;3668464;80;21071;-77
2020/12/12 09:02:17;;;;;;;53.90;27.43;;;;;;;1.45;82.21;97413.05;3644938;80;21023;-75
2020/12/12 09:07:23;;;;;;;56.27;28.27;;;;;;;1.49;82.27;97408.29;3644295;81;21439;-76
2020/12/12 09:12:25;;;;;;;50.17;26.80;;;;;;;1.58;82.26;97419.65;3704414;80;21011;-76
2020/12/12 09:17:27;;;;;;;49.80;23.70;;;;;;;1.69;82.67;97402.77;3647657;80;21048;-76
2020/12/12 09:22:29;;;;;;;58.37;28.57;;;;;;;1.79;82.14;97407.25;3682353;80;21051;-76
2020/12/12 09:27:31;;;;;;;45.37;24.07;;;;;;;1.93;81.95;97390.34;3709077;80;21012;-76
2020/12/12 09:32:33;;;;;;;53.43;27.63;;;;;;;1.93;81.95;97390.34;3665972;79;20996;-76
2020/12/12 09:37:35;;;;;;;58.57;29.30;;;;;;;2.01;81.92;97394.55;3655876;80;21064;-76
2020/12/12 09:42:37;;;;;;;51.77;26.13;;;;;;;2.01;81.92;97394.55;3650611;80;20999;-76
2020/12/12 09:47:40;;;;;;;46.77;25.47;;;;;;;2.04;81.62;97403.80;3681462;80;21465;-76
2020/12/12 09:52:42;;;;;;;53.80;27.00;;;;;;;2.11;81.64;97393.75;3645596;80;21652;-76
2020/12/12 09:57:44;;;;;;;52.17;27.00;;;;;;;2.15;81.70;97392.16;3708884;80;21031;-78
2020/12/12 10:02:46;;;;;;;40.00;22.13;;;;;;;2.22;81.41;97397.17;3709053;80;21028;-76
2020/12/12 10:07:48;;;;;;;51.67;27.23;;;;;;;2.27;81.66;97391.88;3675785;80;21440;-77
2020/12/12 10:12:51;;;;;;;46.33;24.17;;;;;;;2.36;81.61;97406.12;3688972;80;21023;-77
2020/12/12 10:17:54;;;;;;;47.63;25.40;;;;;;;2.48;81.47;97397.13;3577739;82;21051;-77
2020/12/12 10:22:56;;;;;;;45.03;22.43;;;;;;;2.54;81.31;97402.11;3580063;82;21067;-78
2020/12/12 10:27:58;;;;;;;39.77;21.23;;;;;;;2.62;81.20;97415.86;3586007;82;21035;-77
2020/12/12 10:33:00;;;;;;;33.77;19.43;;;;;;;2.56;80.69;97388.61;3577458;82;21025;-77
2020/12/12 10:38:02;;;;;;;32.67;17.90;;;;;;;2.61;80.55;97408.44;3598605;82;21070;-77
2020/12/12 10:43:05;;;;;;;37.93;20.13;;;;;;;2.56;80.56;97403.16;3590622;82;21040;-77
2020/12/12 10:48:08;;;;;;;41.27;21.27;;;;;;;2.51;80.22;97411.91;3558356;82;21086;-77
2020/12/12 10:53:10;;;;;;;41.87;22.63;;;;;;;2.47;80.31;97404.78;3558361;82;21043;-78
2020/12/12 10:58:12;;;;;;;38.23;20.63;;;;;;;2.50;80.48;97402.37;3582139;82;21075;-77
2020/12/12 11:03:14;;;;;;;42.97;22.23;;;;;;;2.51;80.28;97402.65;3566617;82;20996;-77
2020/12/12 11:08:16;;;;;;;42.67;22.77;;;;;;;2.52;80.37;97406.88;3523470;83;21502;-77
2020/12/12 11:13:19;;;;;;;36.50;19.97;;;;;;;2.58;80.48;97420.09;3476513;85;21025;-77
2020/12/12 11:18:21;;;;;;;36.83;20.47;;;;;;;2.68;80.33;97411.58;3499931;82;21058;-77
2020/12/12 11:23:26;;;;;;;43.83;22.50;;;;;;;2.64;79.85;97415.05;3543319;82;21019;-77
2020/12/12 11:28:29;;;;;;;36.73;20.10;;;;;;;2.65;80.09;97417.95;3543576;82;21051;-77
2020/12/12 11:33:36;;;;;;;35.73;20.13;;;;;;;2.66;80.06;97424.29;3555725;82;21041;-76
2020/12/12 11:38:57;;;;;;;36.20;20.97;;;;;;;2.68;80.10;97424.80;3527986;82;21045;-77
2020/12/12 11:44:17;;;;;;;41.77;22.73;;;;;;;2.65;79.62;97424.56;3563353;82;21590;-77
2020/12/12 11:48:59;;;;;;;31.73;18.23;;;;;;;2.54;79.55;97423.25;3548666;81;21109;-76
2020/12/12 11:54:01;;;;;;;42.33;24.07;;;;;;;2.56;79.82;97422.47;3545891;82;21023;-77
2020/12/12 11:59:03;;;;;;;36.20;21.83;;;;;;;2.61;79.87;97432.23;3541211;82;21051;-77
2020/12/12 12:04:05;;;;;;;35.50;20.10;;;;;;;2.62;79.69;97433.04;3541599;82;21578;-78
2020/12/12 12:14:11;;;;;;;40.33;23.23;;;;;;;2.49;79.57;97433.05;3576087;82;21047;-78
2020/12/12 12:19:16;;;;;;;41.47;22.00;;;;;;;2.45;79.56;97437.29;3555820;82;21072;-79
2020/12/12 12:24:20;;;;;;;41.40;23.90;;;;;;;2.38;79.62;97434.41;3570990;82;21535;-79
2020/12/12 12:29:23;;;;;;;36.07;19.93;;;;;;;2.34;79.91;97431.25;3561481;82;21527;-78
2020/12/12 12:34:27;;;;;;;40.90;22.97;;;;;;;2.51;80.03;97451.55;3545524;83;21027;-78
2020/12/12 12:39:29;;;;;;;41.73;23.27;;;;;;;2.56;79.45;97454.70;3545456;83;21083;-77
2020/12/12 12:44:32;;;;;;;40.93;22.67;;;;;;;2.56;79.45;97454.70;3545624;83;20953;-78
2020/12/12 12:49:34;;;;;;;40.17;22.10;;;;;;;2.55;79.64;97452.61;3545780;83;21073;-77
2020/12/12 12:54:36;;;;;;;43.87;25.23;;;;;;;2.56;79.59;97461.31;3545470;83;21067;-78
2020/12/12 12:59:39;;;;;;;39.07;22.00;;;;;;;2.53;79.48;97458.70;3545403;83;21066;-77
2020/12/12 13:04:41;;;;;;;49.00;26.83;;;;;;;2.46;79.42;97464.77;3545450;83;21028;-78
2020/12/12 13:09:43;;;;;;;44.67;25.27;;;;;;;2.44;79.67;97458.97;3545355;83;21515;-77
2020/12/12 13:14:44;;;;;;;48.40;26.33;;;;;;;2.30;79.64;97435.48;3586478;82;21000;-77
2020/12/12 13:19:50;;;;;;;42.60;24.73;;;;;;;2.40;79.55;97460.03;3632797;81;21028;-77
2020/12/12 13:24:50;;;;;;;48.47;24.57;;;;;;;2.39;79.72;97453.69;3591216;82;21052;-77
2020/12/12 13:35:00;;;;;;;43.53;24.20;;;;;;;2.34;79.82;97475.64;3538472;83;21071;-77
2020/12/12 13:40:04;;;;;;;42.67;24.73;;;;;;;2.25;79.89;97454.77;3538533;83;21456;-78
2020/12/12 13:45:07;;;;;;;40.77;21.67;;;;;;;2.25;79.89;97454.77;3538686;84;21064;-77
2020/12/12 13:50:11;;;;;;;49.97;26.50;;;;;;;2.36;79.97;97474.05;3538526;84;21500;-77
2020/12/12 13:55:13;;;;;;;57.10;29.93;;;;;;;2.38;79.77;97476.70;3538578;84;21029;-77
2020/12/12 14:00:15;;;;;;;55.57;29.33;;;;;;;2.29;79.62;97480.92;3538411;84;20996;-77
2020/12/12 14:05:17;;;;;;;57.77;29.17;;;;;;;2.14;79.99;97477.78;3538418;84;21068;-77
2020/12/12 14:10:40;;;;;;;47.67;25.53;;;;;;;2.14;79.99;97477.78;3538699;84;21025;-77
2020/12/12 14:31:06;;;;;;;48.10;24.57;;;;;;;1.98;80.18;97487.53;3710477;80;21140;-78
2020/12/12 14:36:10;;;;;;;41.53;21.03;;;;;;;1.93;80.11;97494.67;3710643;80;20996;-77
2020/12/12 14:41:14;;;;;;;49.83;25.40;;;;;;;1.66;80.42;97489.09;3710651;80;20996;-77
2020/12/12 14:46:19;;;;;;;52.87;27.73;;;;;;;1.66;80.42;97489.09;3710490;80;21075;-78
2020/12/12 14:51:20;;;;;;;47.53;24.30;;;;;;;1.69;80.39;97514.97;3710684;80;21043;-77
2020/12/12 14:56:22;;;;;;;51.50;25.80;;;;;;;1.65;80.99;97515.22;3710731;80;21052;-78
2020/12/12 15:01:24;;;;;;;45.43;25.33;;;;;;;1.65;80.99;97515.22;3710643;80;21326;-78
2020/12/12 15:06:26;;;;;;;43.07;22.17;;;;;;;1.60;80.61;97528.42;3587962;82;21044;-77
2020/12/12 15:11:28;;;;;;;50.20;26.27;;;;;;;1.52;80.70;97546.86;3710472;80;20992;-77
2020/12/12 15:16:31;;;;;;;38.10;20.40;;;;;;;1.46;80.70;97552.66;3632350;81;21024;-78
2020/12/12 15:21:33;;;;;;;44.80;23.47;;;;;;;1.49;80.96;97555.30;3632238;81;21000;-78
2020/12/12 15:26:35;;;;;;;56.90;27.90;;;;;;;1.50;80.97;97560.86;3613305;81;21024;-77
2020/12/12 15:31:38;;;;;;;55.53;28.60;;;;;;;1.50;80.91;97561.64;3605902;82;21064;-78
2020/12/12 15:36:41;;;;;;;48.93;25.53;;;;;;;1.49;80.94;97572.47;3710365;80;20996;-78
2020/12/12 15:41:49;;;;;;;44.07;21.60;;;;;;;1.49;80.94;97572.47;3710442;80;20980;-78
2020/12/12 15:46:49;;;;;;;46.70;24.67;;;;;;;1.48;81.21;97570.36;3709841;80;21506;-78
2020/12/12 15:51:52;;;;;;;53.17;26.23;;;;;;;1.48;81.20;97573.00;3710321;80;21412;-78
2020/12/12 15:56:53;;;;;;;58.90;27.57;;;;;;;1.43;81.16;97570.84;3710307;80;21036;-77
2020/12/12 16:01:55;;;;;;;55.37;25.50;;;;;;;1.41;81.34;97575.06;3710263;80;21094;-77
2020/12/12 16:07:00;;;;;;;62.20;30.37;;;;;;;1.44;81.41;97585.63;3710232;80;21068;-77
2020/12/12 16:12:02;;;;;;;56.30;26.53;;;;;;;1.45;81.37;97590.65;3710367;79;21064;-77
2020/12/12 16:17:05;;;;;;;65.30;30.77;;;;;;;1.43;81.26;97591.95;3710330;80;21401;-78
2020/12/12 16:22:08;;;;;;;65.33;31.17;;;;;;;1.41;81.20;97598.81;3705382;80;20972;-77
2020/12/12 16:27:10;;;;;;;52.77;25.80;;;;;;;1.40;81.22;97608.30;3678319;80;21043;-78
2020/12/12 16:32:12;;;;;;;44.63;22.57;;;;;;;1.43;81.46;97609.11;3704577;80;20980;-77
2020/12/12 16:37:14;;;;;;;57.53;27.47;;;;;;;1.39;81.26;97611.48;3704478;80;21024;-77
2020/12/12 16:42:19;;;;;;;42.53;19.93;;;;;;;1.33;81.18;97617.27;3704734;80;20973;-78
2020/12/12 16:47:23;;;;;;;61.27;28.07;;;;;;;1.33;81.30;97627.00;3704963;80;20948;-78
2020/12/12 16:52:25;;;;;;;51.97;25.63;;;;;;;1.32;81.32;97626.75;3704497;80;21040;-78
2020/12/12 16:57:28;;;;;;;52.33;24.87;;;;;;;1.24;81.32;97633.30;3704546;80;20996;-78
2020/12/12 17:02:30;;;;;;;64.50;28.87;;;;;;;1.22;81.44;97633.27;3704645;80;20972;-78
2020/12/12 17:07:47;;;;;;;45.63;23.83;;;;;;;1.27;81.52;97641.23;3704553;80;21004;-78
2020/12/12 17:12:56;;;;;;;37.60;16.83;;;;;;;1.25;81.35;97652.58;3582505;82;21056;-78
2020/12/12 17:17:58;;;;;;;57.57;24.17;;;;;;;1.21;81.50;97648.32;3578195;83;21069;-77
2020/12/12 17:23:00;;;;;;;44.10;20.60;;;;;;;1.10;81.34;97651.95;3577853;82;21041;-78
2020/12/12 17:28:04;;;;;;;64.97;28.60;;;;;;;1.05;81.51;97659.31;3578270;82;21064;-77
2020/12/12 17:33:13;;;;;;;54.20;22.73;;;;;;;0.98;81.62;97652.93;3703302;80;21076;-77
2020/12/12 17:38:16;;;;;;;59.37;25.03;;;;;;;0.98;81.67;97662.66;3538371;83;21615;-78
2020/12/12 17:43:17;;;;;;;45.50;20.53;;;;;;;0.93;81.61;97662.11;3558677;83;21057;-78
2020/12/12 17:48:19;;;;;;;34.80;16.33;;;;;;;0.88;81.65;97664.70;3549088;83;21428;-78
2020/12/12 17:53:21;;;;;;;47.40;21.17;;;;;;;0.88;81.77;97670.52;3703187;80;21047;-77
2020/12/12 17:58:26;;;;;;;38.77;19.17;;;;;;;0.80;81.46;97674.42;3703276;80;21027;-77
2020/12/12 18:03:29;;;;;;;40.23;16.90;;;;;;;0.72;81.61;97675.66;3565674;83;21032;-77
2020/12/12 18:08:33;;;;;;;39.83;18.43;;;;;;;0.68;81.84;97676.67;3558733;83;21032;-77
2020/12/12 18:13:34;;;;;;;35.57;17.23;;;;;;;0.65;81.77;97682.98;3628845;81;21036;-78
2020/12/12 18:18:38;;;;;;;30.50;14.20;;;;;;;0.65;82.02;97686.94;3580061;82;47710;-77
2020/12/12 18:23:42;;;;;;;43.20;18.43;;;;;;;0.65;82.08;97696.16;3587700;81;21044;-77
2020/12/12 18:28:45;;;;;;;45.90;20.00;;;;;;;0.65;81.95;97707.49;3587709;82;21059;-78
2020/12/12 18:33:50;;;;;;;48.67;21.43;;;;;;;0.66;82.12;97708.30;3587649;82;21079;-78
2020/12/12 18:38:52;;;;;;;61.43;23.97;;;;;;;0.66;82.31;97705.67;3587686;82;21032;-77
2020/12/12 18:43:55;;;;;;;54.83;23.80;;;;;;;0.66;82.32;97707.77;3587671;82;21036;-77
2020/12/12 18:48:57;;;;;;;44.17;20.93;;;;;;;0.72;82.43;97707.83;3587644;82;21484;-77
2020/12/12 18:53:59;;;;;;;53.80;24.00;;;;;;;0.72;82.22;97713.88;3587932;82;21543;-77
2020/12/12 18:59:01;;;;;;;59.30;24.87;;;;;;;0.73;82.52;97711.53;3587838;82;20972;-77
2020/12/12 19:04:04;;;;;;;51.90;21.43;;;;;;;0.75;82.43;97715.23;3587575;82;21020;-78
2020/12/12 19:09:08;;;;;;;51.03;22.77;;;;;;;0.77;82.50;97715.26;3587748;82;21515;-77
2020/12/12 19:14:10;;;;;;;53.77;23.87;;;;;;;0.78;82.26;97726.59;3587630;82;21500;-76
2020/12/12 19:19:13;;;;;;;52.20;23.47;;;;;;;0.79;82.41;97727.66;3588083;81;20997;-77
2020/12/12 19:24:15;;;;;;;54.63;22.87;;;;;;;0.77;82.41;97738.98;3587849;82;21036;-76
2020/12/12 19:29:18;;;;;;;54.60;22.60;;;;;;;0.80;82.58;97740.33;3593407;82;21005;-77
2020/12/12 19:34:20;;;;;;;52.30;22.30;;;;;;;0.79;82.52;97741.38;3584621;82;21004;-77
2020/12/12 19:39:25;;;;;;;56.30;22.27;;;;;;;0.82;82.65;97744.81;3524004;83;21539;-77
2020/12/12 19:44:31;;;;;;;48.67;18.73;;;;;;;0.81;82.71;97755.90;3521184;84;21021;-77
2020/12/12 19:49:33;;;;;;;36.00;17.33;;;;;;;0.82;82.62;97754.83;3591199;82;20967;-77
2020/12/12 19:54:37;;;;;;;56.37;24.27;;;;;;;0.86;82.75;97753.83;3680945;80;21059;-77
2020/12/12 19:59:40;;;;;;;43.67;19.10;;;;;;;0.87;82.79;97749.33;3682289;80;21044;-77
2020/12/12 20:04:42;;;;;;;52.73;22.23;;;;;;;0.87;82.82;97758.56;3682468;80;21302;-78
2020/12/12 20:09:44;;;;;;;58.27;23.97;;;;;;;0.87;82.83;97755.92;3682275;80;21469;-77
2020/12/12 20:14:46;;;;;;;54.97;24.70;;;;;;;0.88;82.88;97764.91;3696574;80;21004;-77
2020/12/12 20:19:48;;;;;;;60.33;23.63;;;;;;;0.86;82.67;97765.69;3565816;83;21089;-77
2020/12/12 20:24:51;;;;;;;63.60;26.57;;;;;;;0.83;82.84;97780.16;3620519;82;21032;-78
2020/12/12 20:29:53;;;;;;;68.47;26.30;;;;;;;0.84;82.92;97781.76;3578041;82;21032;-78
2020/12/12 20:34:55;;;;;;;56.23;23.70;;;;;;;0.92;82.91;97792.37;3703488;80;21390;-78
2020/12/12 20:39:57;;;;;;;72.17;26.87;;;;;;;0.94;82.96;97796.89;3565684;83;21005;-78
2020/12/12 20:44:58;;;;;;;57.70;23.93;;;;;;;0.96;83.06;97797.42;3558752;83;21008;-77
2020/12/12 20:50:01;;;;;;;57.73;23.77;;;;;;;1.00;82.97;97796.41;3627335;81;21341;-79
2020/12/12 20:55:07;;;;;;;50.00;19.60;;;;;;;0.97;82.84;97800.87;3600934;82;20996;-78
2020/12/12 21:00:11;;;;;;;58.80;23.40;;;;;;;0.91;82.93;97794.75;3704156;80;20996;-78
2020/12/12 21:05:13;;;;;;;66.20;26.13;;;;;;;0.89;82.93;97793.41;3703673;80;21024;-78
2020/12/12 21:10:15;;;;;;;40.37;18.73;;;;;;;0.93;83.00;97797.14;3703883;80;20996;-77
2020/12/12 21:15:20;;;;;;;66.63;27.87;;;;;;;0.97;83.19;97796.91;3708311;80;21430;-78
2020/12/12 21:20:24;;;;;;;66.40;25.60;;;;;;;0.99;83.11;97809.31;3709691;80;21518;-78
2020/12/12 21:25:27;;;;;;;62.57;24.47;;;;;;;1.03;83.23;97809.09;3534502;82;21481;-78
2020/12/12 21:30:32;;;;;;;72.47;27.23;;;;;;;1.05;83.07;97814.92;3495885;85;21452;-78
2020/12/12 21:35:33;;;;;;;61.30;24.77;;;;;;;1.05;83.15;97823.34;3495793;85;21577;-79
2020/12/12 21:40:36;;;;;;;61.67;25.27;;;;;;;1.08;83.20;97822.34;3527134;84;21064;-78
2020/12/12 21:45:38;;;;;;;61.27;24.93;;;;;;;1.11;83.18;97821.05;3526583;84;21278;-76
2020/12/12 21:50:40;;;;;;;61.00;23.97;;;;;;;1.09;83.26;97829.72;3468543;85;21001;-78
2020/12/12 21:55:43;;;;;;;56.73;25.17;;;;;;;1.08;83.13;97819.70;3526637;84;21056;-78
2020/12/12 22:00:45;;;;;;;48.30;20.13;;;;;;;1.01;82.89;97829.13;3468618;85;21068;-78
2020/12/12 22:05:49;;;;;;;67.70;24.87;;;;;;;1.04;83.38;97824.41;3526411;84;21496;-78
2020/12/12 22:10:51;;;;;;;66.03;26.40;;;;;;;1.06;83.17;97831.00;3526280;84;20973;-77
2020/12/12 22:15:53;;;;;;;62.93;26.87;;;;;;;1.08;83.19;97834.20;3544292;83;21040;-77
2020/12/12 22:20:55;;;;;;;64.20;27.53;;;;;;;1.15;83.35;97837.44;3577929;83;20977;-78
2020/12/12 22:25:58;;;;;;;60.27;27.43;;;;;;;1.23;83.34;97845.94;3543520;83;21024;-78
2020/12/12 22:31:01;;;;;;;60.33;26.80;;;;;;;1.30;83.52;97853.13;3517632;84;21358;-78
2020/12/12 22:36:03;;;;;;;59.90;26.67;;;;;;;1.36;83.45;97850.82;3517552;83;21432;-77
2020/12/12 22:41:06;;;;;;;53.47;25.07;;;;;;;1.42;83.21;97859.04;3517572;84;21053;-77
2020/12/12 22:46:08;;;;;;;51.87;25.33;;;;;;;1.52;83.42;97860.44;3517672;83;21060;-77
2020/12/12 22:51:12;;;;;;;49.03;22.63;;;;;;;1.61;83.41;97862.62;3514943;84;21029;-77
2020/12/12 22:56:19;;;;;;;56.30;25.40;;;;;;;1.61;83.00;97863.43;3517791;84;20987;-77
2020/12/12 23:01:21;;;;;;;53.50;24.50;;;;;;;1.62;82.93;97857.62;3499410;84;21073;-77
2020/12/12 23:06:24;;;;;;;43.57;20.90;;;;;;;1.67;83.05;97867.69;3517969;84;20959;-77
2020/12/12 23:11:28;;;;;;;55.80;25.03;;;;;;;1.70;82.77;97869.03;3519243;83;20981;-77
2020/12/12 23:16:31;;;;;;;55.07;24.17;;;;;;;1.66;82.84;97866.09;3578313;83;21060;-77
2020/12/12 23:21:35;;;;;;;95.07;44.47;;;;;;;1.68;82.89;97869.83;3578209;83;21016;-77
2020/12/12 23:26:39;;;;;;;52.90;24.83;;;;;;;1.71;82.81;97864.03;3564635;83;21088;-77
2020/12/12 23:31:40;;;;;;;50.10;23.80;;;;;;;1.73;82.42;97864.56;3518010;83;21505;-77
2020/12/12 23:36:43;;;;;;;50.13;24.40;;;;;;;1.70;82.25;97865.08;3517801;84;20989;-77
2020/12/12 23:41:45;;;;;;;54.97;25.10;;;;;;;1.69;82.37;97869.57;3517724;83;21016;-77
2020/12/12 23:46:47;;;;;;;46.53;22.23;;;;;;;1.64;82.15;97870.06;3517885;83;21068;-78
2020/12/12 23:51:50;;;;;;;52.07;23.80;;;;;;;1.61;82.32;97865.26;3517989;83;21009;-76